Terminal Aerodrome Forecast
Issued by NWS

Home | Current Version | Previous Version | Graphics & Text | Print | Product List | Glossary On
Versions: 1 2 3 4 5 6 7 8 9 10 11 12 13 14
000
FTUS41 KCLE 222333
TAFFDY
TAF
KFDY 222333Z 2300/2324 07004KT P6SM FEW250
     FM230900 00000KT 4SM BR FEW250
      TEMPO 2310/2312 2SM BR
     FM231200 VRB03KT P6SM FEW250=

USA.gov is the U.S. government's official web portal to all federal, state and local government web resources and services.